sensor_id;sensor_type;location;lat;lon;timestamp;pressure;altitude;pressure_sealevel;temperature;humidity
74637;BME280;63141;54.616;39.754;2022-12-05T00:02:24;103274.50;;;23.86;23.23
74637;BME280;63141;54.616;39.754;2022-12-05T00:05:26;103270.06;;;23.85;23.48
74637;BME280;63141;54.616;39.754;2022-12-05T00:08:30;103274.50;;;23.86;23.13
74637;BME280;63141;54.616;39.754;2022-12-05T00:11:33;103275.41;;;23.85;23.26
74637;BME280;63141;54.616;39.754;2022-12-05T00:14:35;103269.19;;;23.86;23.19
74637;BME280;63141;54.616;39.754;2022-12-05T00:17:37;103270.06;;;23.85;23.15
74637;BME280;63141;54.616;39.754;2022-12-05T00:20:46;103269.19;;;23.86;23.17
74637;BME280;63141;54.616;39.754;2022-12-05T00:23:49;103270.06;;;23.85;23.33
74637;BME280;63141;54.616;39.754;2022-12-05T00:26:50;103263.84;;;23.84;23.30
74637;BME280;63141;54.616;39.754;2022-12-05T00:29:52;103269.16;;;23.84;23.26
74637;BME280;63141;54.616;39.754;2022-12-05T00:32:53;103261.19;;;23.82;23.16
74637;BME280;63141;54.616;39.754;2022-12-05T00:35:54;103262.97;;;23.83;23.20
74637;BME280;63141;54.616;39.754;2022-12-05T00:38:58;103260.28;;;23.83;23.26
74637;BME280;63141;54.616;39.754;2022-12-05T00:42:00;103252.31;;;23.83;23.34
74637;BME280;63141;54.616;39.754;2022-12-05T00:45:02;103253.19;;;23.84;23.27
74637;BME280;63141;54.616;39.754;2022-12-05T00:48:04;103260.28;;;23.83;23.27
74637;BME280;63141;54.616;39.754;2022-12-05T00:51:08;103255.84;;;23.84;23.06
74637;BME280;63141;54.616;39.754;2022-12-05T00:54:13;103258.50;;;23.84;23.20
74637;BME280;63141;54.616;39.754;2022-12-05T00:57:15;103247.00;;;23.83;23.10
74637;BME280;63141;54.616;39.754;2022-12-05T01:00:16;103247.00;;;23.83;23.25
74637;BME280;63141;54.616;39.754;2022-12-05T01:03:23;103239.00;;;23.85;23.04
74637;BME280;63141;54.616;39.754;2022-12-05T01:06:25;103251.44;;;23.85;23.10
74637;BME280;63141;54.616;39.754;2022-12-05T01:09:27;103241.66;;;23.83;23.09
74637;BME280;63141;54.616;39.754;2022-12-05T01:12:28;103239.91;;;23.82;23.21
74637;BME280;63141;54.616;39.754;2022-12-05T01:15:29;103239.00;;;23.83;23.00
74637;BME280;63141;54.616;39.754;2022-12-05T01:18:31;103241.66;;;23.83;23.07
74637;BME280;63141;54.616;39.754;2022-12-05T01:21:32;103236.34;;;23.83;23.07
74637;BME280;63141;54.616;39.754;2022-12-05T01:24:34;103234.56;;;23.82;23.29
74637;BME280;63141;54.616;39.754;2022-12-05T01:27:35;103231.91;;;23.82;23.18
74637;BME280;63141;54.616;39.754;2022-12-05T01:30:42;103221.28;;;23.82;23.21
74637;BME280;63141;54.616;39.754;2022-12-05T01:33:49;103222.13;;;23.81;23.10
74637;BME280;63141;54.616;39.754;2022-12-05T01:36:51;103229.25;;;23.82;23.23
74637;BME280;63141;54.616;39.754;2022-12-05T01:39:52;103223.94;;;23.82;23.10
74637;BME280;63141;54.616;39.754;2022-12-05T01:42:54;103207.03;;;23.82;23.16
74637;BME280;63141;54.616;39.754;2022-12-05T01:45:56;103207.03;;;23.82;23.18
74637;BME280;63141;54.616;39.754;2022-12-05T01:49:07;103199.97;;;23.82;23.04
74637;BME280;63141;54.616;39.754;2022-12-05T01:52:14;103203.53;;;23.83;23.23
74637;BME280;63141;54.616;39.754;2022-12-05T01:55:17;103199.06;;;23.82;23.07
74637;BME280;63141;54.616;39.754;2022-12-05T01:58:20;103197.31;;;23.82;23.17
74637;BME280;63141;54.616;39.754;2022-12-05T02:01:23;103196.41;;;23.82;23.04
74637;BME280;63141;54.616;39.754;2022-12-05T02:04:30;103186.66;;;23.81;23.02
74637;BME280;63141;54.616;39.754;2022-12-05T02:07:32;103183.13;;;23.80;22.91
74637;BME280;63141;54.616;39.754;2022-12-05T02:10:38;103175.13;;;23.80;23.20
74637;BME280;63141;54.616;39.754;2022-12-05T02:13:50;103172.47;;;23.80;23.02
74637;BME280;63141;54.616;39.754;2022-12-05T02:20:45;103161.81;;;23.80;23.17
74637;BME280;63141;54.616;39.754;2022-12-05T02:30:11;103166.25;;;23.81;23.07
74637;BME280;63141;54.616;39.754;2022-12-05T02:43:11;103162.72;;;23.82;23.14
74637;BME280;63141;54.616;39.754;2022-12-05T02:46:18;103153.84;;;23.80;22.90
74637;BME280;63141;54.616;39.754;2022-12-05T02:49:28;103152.94;;;23.81;22.89
74637;BME280;63141;54.616;39.754;2022-12-05T02:52:31;103152.06;;;23.81;22.77
74637;BME280;63141;54.616;39.754;2022-12-05T02:55:34;103147.63;;;23.78;22.95
74637;BME280;63141;54.616;39.754;2022-12-05T02:59:01;103143.19;;;23.79;23.08
74637;BME280;63141;54.616;39.754;2022-12-05T03:02:01;103139.63;;;23.81;22.84
74637;BME280;63141;54.616;39.754;2022-12-05T03:08:15;103133.41;;;23.79;23.05
74637;BME280;63141;54.616;39.754;2022-12-05T03:11:18;103136.97;;;23.78;23.03
74637;BME280;63141;54.616;39.754;2022-12-05T03:14:27;103133.44;;;23.78;22.98
74637;BME280;63141;54.616;39.754;2022-12-05T03:17:35;103132.53;;;23.77;23.02
74637;BME280;63141;54.616;39.754;2022-12-05T03:21:01;103136.97;;;23.78;23.14
74637;BME280;63141;54.616;39.754;2022-12-05T03:24:07;103129.88;;;23.77;23.16
74637;BME280;63141;54.616;39.754;2022-12-05T03:27:29;103125.44;;;23.76;22.89
74637;BME280;63141;54.616;39.754;2022-12-05T03:30:37;103122.78;;;23.75;23.10
74637;BME280;63141;54.616;39.754;2022-12-05T03:33:43;103123.66;;;23.75;23.22
74637;BME280;63141;54.616;39.754;2022-12-05T03:36:48;103117.44;;;23.73;22.99
74637;BME280;63141;54.616;39.754;2022-12-05T03:40:04;103112.13;;;23.73;23.17
74637;BME280;63141;54.616;39.754;2022-12-05T03:43:09;103105.00;;;23.72;23.39
74637;BME280;63141;54.616;39.754;2022-12-05T03:46:25;103101.47;;;23.73;23.14
74637;BME280;63141;54.616;39.754;2022-12-05T03:49:36;103104.13;;;23.72;22.88
74637;BME280;63141;54.616;39.754;2022-12-05T03:52:52;103105.00;;;23.72;23.21
74637;BME280;63141;54.616;39.754;2022-12-05T03:56:05;103094.34;;;23.71;23.04
74637;BME280;63141;54.616;39.754;2022-12-05T03:59:16;103099.66;;;23.71;23.14
74637;BME280;63141;54.616;39.754;2022-12-05T04:02:31;103103.25;;;23.71;23.12
74637;BME280;63141;54.616;39.754;2022-12-05T04:05:59;103102.31;;;23.71;23.18
74637;BME280;63141;54.616;39.754;2022-12-05T04:09:06;103097.00;;;23.71;22.95
74637;BME280;63141;54.616;39.754;2022-12-05T04:12:18;103105.00;;;23.71;23.31
74637;BME280;63141;54.616;39.754;2022-12-05T04:15:25;103096.13;;;23.70;23.08
74637;BME280;63141;54.616;39.754;2022-12-05T04:19:04;103099.69;;;23.72;23.23
74637;BME280;63141;54.616;39.754;2022-12-05T04:22:06;103095.25;;;23.71;23.31
74637;BME280;63141;54.616;39.754;2022-12-05T04:25:10;103082.81;;;23.72;23.37
74637;BME280;63141;54.616;39.754;2022-12-05T04:31:42;103081.97;;;23.74;23.20
74637;BME280;63141;54.616;39.754;2022-12-05T04:34:50;103073.94;;;23.73;23.10
74637;BME280;63141;54.616;39.754;2022-12-05T04:38:01;103076.59;;;23.73;23.32
74637;BME280;63141;54.616;39.754;2022-12-05T04:41:07;103080.19;;;23.73;23.11
74637;BME280;63141;54.616;39.754;2022-12-05T04:44:14;103072.19;;;23.73;23.06
74637;BME280;63141;54.616;39.754;2022-12-05T04:47:18;103067.75;;;23.72;23.27
74637;BME280;63141;54.616;39.754;2022-12-05T04:50:23;103067.75;;;23.72;23.24
74637;BME280;63141;54.616;39.754;2022-12-05T04:53:28;103066.00;;;23.74;22.93
74637;BME280;63141;54.616;39.754;2022-12-05T04:56:33;103074.84;;;23.73;23.20
74637;BME280;63141;54.616;39.754;2022-12-05T04:59:36;103065.09;;;23.72;23.12
74637;BME280;63141;54.616;39.754;2022-12-05T05:02:48;103073.06;;;23.72;23.13
74637;BME280;63141;54.616;39.754;2022-12-05T05:05:53;103068.66;;;23.71;23.04
74637;BME280;63141;54.616;39.754;2022-12-05T05:08:57;103060.66;;;23.71;23.24
74637;BME280;63141;54.616;39.754;2022-12-05T05:11:59;103073.06;;;23.72;23.04
74637;BME280;63141;54.616;39.754;2022-12-05T05:15:00;103070.41;;;23.72;23.29
74637;BME280;63141;54.616;39.754;2022-12-05T05:18:01;103071.28;;;23.73;23.01
74637;BME280;63141;54.616;39.754;2022-12-05T05:21:03;103058.88;;;23.73;23.16
74637;BME280;63141;54.616;39.754;2022-12-05T05:24:06;103062.41;;;23.72;23.12
74637;BME280;63141;54.616;39.754;2022-12-05T05:27:08;103064.22;;;23.73;22.85
74637;BME280;63141;54.616;39.754;2022-12-05T05:30:09;103060.63;;;23.73;23.29
74637;BME280;63141;54.616;39.754;2022-12-05T05:33:11;103052.66;;;23.73;23.00
74637;BME280;63141;54.616;39.754;2022-12-05T05:36:13;103057.09;;;23.72;23.04
74637;BME280;63141;54.616;39.754;2022-12-05T05:39:14;103053.56;;;23.73;23.00
74637;BME280;63141;54.616;39.754;2022-12-05T05:42:16;103054.44;;;23.72;23.21
74637;BME280;63141;54.616;39.754;2022-12-05T05:45:18;103061.56;;;23.73;23.17
74637;BME280;63141;54.616;39.754;2022-12-05T05:48:19;103057.97;;;23.73;23.01
74637;BME280;63141;54.616;39.754;2022-12-05T05:51:21;103055.31;;;23.73;23.22
74637;BME280;63141;54.616;39.754;2022-12-05T05:54:25;103051.78;;;23.72;22.97
74637;BME280;63141;54.616;39.754;2022-12-05T05:57:27;103059.75;;;23.72;23.26
74637;BME280;63141;54.616;39.754;2022-12-05T06:00:28;103051.78;;;23.72;23.16
74637;BME280;63141;54.616;39.754;2022-12-05T06:03:35;103054.44;;;23.72;23.00
74637;BME280;63141;54.616;39.754;2022-12-05T06:06:36;103057.09;;;23.72;22.88
74637;BME280;63141;54.616;39.754;2022-12-05T06:09:37;103052.69;;;23.71;23.11
74637;BME280;63141;54.616;39.754;2022-12-05T06:12:39;103060.63;;;23.73;23.03
74637;BME280;63141;54.616;39.754;2022-12-05T06:15:40;103054.44;;;23.72;22.86
74637;BME280;63141;54.616;39.754;2022-12-05T06:18:42;103057.09;;;23.72;23.10
74637;BME280;63141;54.616;39.754;2022-12-05T06:21:43;103051.78;;;23.72;22.87
74637;BME280;63141;54.616;39.754;2022-12-05T06:24:45;103048.25;;;23.73;22.97
74637;BME280;63141;54.616;39.754;2022-12-05T06:27:46;103050.00;;;23.73;22.93
74637;BME280;63141;54.616;39.754;2022-12-05T06:30:47;103044.66;;;23.73;22.79
74637;BME280;63141;54.616;39.754;2022-12-05T06:33:49;103045.59;;;23.73;22.90
74637;BME280;63141;54.616;39.754;2022-12-05T06:36:50;103043.81;;;23.74;22.86
74637;BME280;63141;54.616;39.754;2022-12-05T06:39:52;103036.72;;;23.74;22.81
74637;BME280;63141;54.616;39.754;2022-12-05T06:42:53;103046.47;;;23.75;23.00
74637;BME280;63141;54.616;39.754;2022-12-05T06:45:54;103039.38;;;23.74;22.91
74637;BME280;63141;54.616;39.754;2022-12-05T06:48:56;103035.81;;;23.75;22.86
74637;BME280;63141;54.616;39.754;2022-12-05T06:51:58;103036.72;;;23.77;22.90
74637;BME280;63141;54.616;39.754;2022-12-05T06:55:00;103034.97;;;23.78;22.83
74637;BME280;63141;54.616;39.754;2022-12-05T06:58:01;103037.63;;;23.78;22.97
74637;BME280;63141;54.616;39.754;2022-12-05T07:01:02;103033.19;;;23.78;22.96
74637;BME280;63141;54.616;39.754;2022-12-05T07:04:28;103026.97;;;23.79;22.79
74637;BME280;63141;54.616;39.754;2022-12-05T07:07:29;103034.06;;;23.80;22.72
74637;BME280;63141;54.616;39.754;2022-12-05T07:10:30;103026.97;;;23.79;22.85
74637;BME280;63141;54.616;39.754;2022-12-05T07:13:32;103023.44;;;23.80;22.96
74637;BME280;63141;54.616;39.754;2022-12-05T07:16:33;103013.66;;;23.79;22.73
74637;BME280;63141;54.616;39.754;2022-12-05T07:19:35;103011.00;;;23.81;23.08
74637;BME280;63141;54.616;39.754;2022-12-05T07:22:36;103013.66;;;23.81;23.01
74637;BME280;63141;54.616;39.754;2022-12-05T07:25:39;103003.91;;;23.81;22.90
74637;BME280;63141;54.616;39.754;2022-12-05T07:28:41;103005.69;;;23.82;22.81
74637;BME280;63141;54.616;39.754;2022-12-05T07:31:42;103008.34;;;23.82;22.81
74637;BME280;63141;54.616;39.754;2022-12-05T07:34:44;103010.97;;;23.84;22.96
74637;BME280;63141;54.616;39.754;2022-12-05T07:37:45;103012.75;;;23.83;22.54
74637;BME280;63141;54.616;39.754;2022-12-05T07:40:46;103021.63;;;23.86;22.83
74637;BME280;63141;54.616;39.754;2022-12-05T07:43:50;103015.44;;;23.83;22.77
74637;BME280;63141;54.616;39.754;2022-12-05T07:46:51;103010.09;;;23.83;22.70
74637;BME280;63141;54.616;39.754;2022-12-05T07:49:53;103016.31;;;23.84;22.74
74637;BME280;63141;54.616;39.754;2022-12-05T07:52:54;103012.75;;;23.83;22.76
74637;BME280;63141;54.616;39.754;2022-12-05T07:56:00;103011.88;;;23.86;22.62
74637;BME280;63141;54.616;39.754;2022-12-05T07:59:02;103005.66;;;23.86;22.81
74637;BME280;63141;54.616;39.754;2022-12-05T08:02:07;103006.53;;;23.86;22.71
74637;BME280;63141;54.616;39.754;2022-12-05T08:05:09;102998.59;;;23.85;22.64
74637;BME280;63141;54.616;39.754;2022-12-05T08:08:13;103004.78;;;23.85;22.78
74637;BME280;63141;54.616;39.754;2022-12-05T08:11:17;103001.22;;;23.86;22.79
74637;BME280;63141;54.616;39.754;2022-12-05T08:14:19;102998.56;;;23.86;22.90
74637;BME280;63141;54.616;39.754;2022-12-05T08:17:20;102997.69;;;23.87;22.95
74637;BME280;63141;54.616;39.754;2022-12-05T08:20:21;102995.03;;;23.86;22.70
74637;BME280;63141;54.616;39.754;2022-12-05T08:23:23;102991.44;;;23.87;22.76
74637;BME280;63141;54.616;39.754;2022-12-05T08:26:26;102983.47;;;23.87;22.62
74637;BME280;63141;54.616;39.754;2022-12-05T08:29:28;102990.59;;;23.88;22.87
74637;BME280;63141;54.616;39.754;2022-12-05T08:32:30;102979.94;;;23.88;22.62
74637;BME280;63141;54.616;39.754;2022-12-05T08:35:31;102974.63;;;23.88;22.84
74637;BME280;63141;54.616;39.754;2022-12-05T08:38:36;102965.75;;;23.87;22.71
74637;BME280;63141;54.616;39.754;2022-12-05T08:41:38;102971.94;;;23.88;22.54
74637;BME280;63141;54.616;39.754;2022-12-05T08:44:39;102961.31;;;23.88;22.83
74637;BME280;63141;54.616;39.754;2022-12-05T08:47:41;102960.41;;;23.89;22.69
74637;BME280;63141;54.616;39.754;2022-12-05T08:50:42;102954.19;;;23.87;22.83
74637;BME280;63141;54.616;39.754;2022-12-05T08:53:43;102957.75;;;23.89;22.88
74637;BME280;63141;54.616;39.754;2022-12-05T08:56:45;102953.31;;;23.88;22.60
74637;BME280;63141;54.616;39.754;2022-12-05T08:59:46;102947.09;;;23.89;22.62
74637;BME280;63141;54.616;39.754;2022-12-05T09:02:50;102953.31;;;23.89;22.69
74637;BME280;63141;54.616;39.754;2022-12-05T09:05:52;102938.22;;;23.90;22.73
74637;BME280;63141;54.616;39.754;2022-12-05T09:08:58;102933.78;;;23.89;22.50
74637;BME280;63141;54.616;39.754;2022-12-05T09:12:00;102939.09;;;23.90;22.75
74637;BME280;63141;54.616;39.754;2022-12-05T09:15:04;102938.22;;;23.91;22.74
74637;BME280;63141;54.616;39.754;2022-12-05T09:18:06;102932.00;;;23.92;22.72
74637;BME280;63141;54.616;39.754;2022-12-05T09:21:08;102928.47;;;23.92;22.73
74637;BME280;63141;54.616;39.754;2022-12-05T09:24:12;102931.13;;;23.92;22.76
74637;BME280;63141;54.616;39.754;2022-12-05T09:27:14;102921.38;;;23.92;22.92
74637;BME280;63141;54.616;39.754;2022-12-05T09:30:16;102904.50;;;23.92;22.68
74637;BME280;63141;54.616;39.754;2022-12-05T09:33:17;102900.06;;;23.92;22.55
74637;BME280;63141;54.616;39.754;2022-12-05T09:36:27;102900.06;;;23.92;22.61
74637;BME280;63141;54.616;39.754;2022-12-05T09:39:28;102893.88;;;23.92;22.69
74637;BME280;63141;54.616;39.754;2022-12-05T09:42:57;102888.50;;;23.93;22.76
74637;BME280;63141;54.616;39.754;2022-12-05T09:46:08;102874.31;;;23.93;22.62
74637;BME280;63141;54.616;39.754;2022-12-05T09:49:16;102877.00;;;23.93;22.82
74637;BME280;63141;54.616;39.754;2022-12-05T09:52:30;102884.09;;;23.94;22.58
74637;BME280;63141;54.616;39.754;2022-12-05T09:56:03;102868.13;;;23.94;22.62
74637;BME280;63141;54.616;39.754;2022-12-05T09:59:12;102881.44;;;23.94;22.48
74637;BME280;63141;54.616;39.754;2022-12-05T10:08:59;102867.22;;;23.95;22.60
74637;BME280;63141;54.616;39.754;2022-12-05T10:15:41;102867.22;;;23.95;22.62
74637;BME280;63141;54.616;39.754;2022-12-05T10:19:02;102868.97;;;23.96;22.67
74637;BME280;63141;54.616;39.754;2022-12-05T10:22:15;102860.13;;;23.95;22.83
74637;BME280;63141;54.616;39.754;2022-12-05T10:25:20;102853.00;;;23.96;22.81
74637;BME280;63141;54.616;39.754;2022-12-05T10:32:23;102848.59;;;23.95;22.48
74637;BME280;63141;54.616;39.754;2022-12-05T10:35:32;102852.13;;;23.95;22.61
74637;BME280;63141;54.616;39.754;2022-12-05T10:38:34;102843.28;;;23.96;22.57
74637;BME280;63141;54.616;39.754;2022-12-05T10:41:35;102850.34;;;23.96;22.57
74637;BME280;63141;54.616;39.754;2022-12-05T10:44:37;102853.00;;;23.96;22.71
74637;BME280;63141;54.616;39.754;2022-12-05T10:47:38;102845.94;;;23.95;22.61
74637;BME280;63141;54.616;39.754;2022-12-05T10:50:41;102840.59;;;23.95;22.59
74637;BME280;63141;54.616;39.754;2022-12-05T10:53:45;102840.59;;;23.95;22.53
74637;BME280;63141;54.616;39.754;2022-12-05T10:56:51;102837.03;;;23.96;22.55
74637;BME280;63141;54.616;39.754;2022-12-05T10:59:53;102845.03;;;23.96;22.57
74637;BME280;63141;54.616;39.754;2022-12-05T11:02:59;102834.38;;;23.96;22.70
74637;BME280;63141;54.616;39.754;2022-12-05T11:06:28;102832.63;;;23.96;22.80
74637;BME280;63141;54.616;39.754;2022-12-05T11:09:35;102831.72;;;23.96;22.49
74637;BME280;63141;54.616;39.754;2022-12-05T11:12:38;102828.16;;;23.95;22.74
74637;BME280;63141;54.616;39.754;2022-12-05T11:15:44;102822.84;;;23.97;22.50
74637;BME280;63141;54.616;39.754;2022-12-05T11:18:46;102829.94;;;23.95;22.57
74637;BME280;63141;54.616;39.754;2022-12-05T11:21:50;102821.97;;;23.95;22.49
74637;BME280;63141;54.616;39.754;2022-12-05T11:24:52;102816.66;;;23.95;22.55
74637;BME280;63141;54.616;39.754;2022-12-05T11:27:55;102815.75;;;23.96;22.57
74637;BME280;63141;54.616;39.754;2022-12-05T11:31:00;102816.66;;;23.95;22.47
74637;BME280;63141;54.616;39.754;2022-12-05T11:34:10;102813.97;;;23.95;22.59
74637;BME280;63141;54.616;39.754;2022-12-05T11:37:21;102813.09;;;23.91;22.68
74637;BME280;63141;54.616;39.754;2022-12-05T11:40:49;102808.81;;;23.58;21.18
74637;BME280;63141;54.616;39.754;2022-12-05T11:56:51;102786.81;;;22.44;21.50
74637;BME280;63141;54.616;39.754;2022-12-05T12:00:11;102782.38;;;22.63;21.52
74637;BME280;63141;54.616;39.754;2022-12-05T12:03:21;102773.50;;;22.79;21.69
74637;BME280;63141;54.616;39.754;2022-12-05T12:10:25;102781.50;;;23.04;21.61
74637;BME280;63141;54.616;39.754;2022-12-05T12:17:02;102780.56;;;23.17;21.75
74637;BME280;63141;54.616;39.754;2022-12-05T12:20:38;102774.34;;;23.23;21.58
74637;BME280;63141;54.616;39.754;2022-12-05T12:45:05;102751.25;;;23.41;21.54
74637;BME280;63141;54.616;39.754;2022-12-05T12:51:30;102750.34;;;23.44;21.62
74637;BME280;63141;54.616;39.754;2022-12-05T13:01:41;102737.94;;;23.46;21.86
74637;BME280;63141;54.616;39.754;2022-12-05T13:04:57;102741.47;;;23.48;22.00
74637;BME280;63141;54.616;39.754;2022-12-05T13:08:42;102738.81;;;23.48;21.80
74637;BME280;63141;54.616;39.754;2022-12-05T13:11:46;102740.56;;;23.48;21.94
74637;BME280;63141;54.616;39.754;2022-12-05T13:15:00;102733.50;;;23.48;21.76
74637;BME280;63141;54.616;39.754;2022-12-05T13:18:05;102729.94;;;23.46;21.92
74637;BME280;63141;54.616;39.754;2022-12-05T13:21:08;102721.94;;;23.48;21.66
74637;BME280;63141;54.616;39.754;2022-12-05T13:24:11;102718.41;;;23.49;21.77
74637;BME280;63141;54.616;39.754;2022-12-05T13:27:15;102709.53;;;23.47;22.00
74637;BME280;63141;54.616;39.754;2022-12-05T13:30:18;102702.47;;;23.46;21.84
74637;BME280;63141;54.616;39.754;2022-12-05T13:33:21;102702.47;;;23.46;21.91
74637;BME280;63141;54.616;39.754;2022-12-05T13:36:25;102705.13;;;23.46;21.91
74637;BME280;63141;54.616;39.754;2022-12-05T13:39:51;102698.91;;;23.47;21.90
74637;BME280;63141;54.616;39.754;2022-12-05T13:43:15;102705.97;;;23.48;21.80
74637;BME280;63141;54.616;39.754;2022-12-05T13:46:25;102701.53;;;23.50;22.00
74637;BME280;63141;54.616;39.754;2022-12-05T13:53:03;102697.13;;;23.49;21.99
74637;BME280;63141;54.616;39.754;2022-12-05T13:56:26;102698.00;;;23.49;21.74
74637;BME280;63141;54.616;39.754;2022-12-05T14:09:53;102675.84;;;23.49;21.79
74637;BME280;63141;54.616;39.754;2022-12-05T14:12:57;102674.09;;;23.46;21.74
74637;BME280;63141;54.616;39.754;2022-12-05T14:19:39;102670.53;;;23.49;21.68
74637;BME280;63141;54.616;39.754;2022-12-05T14:32:49;102658.09;;;23.48;21.87
74637;BME280;63141;54.616;39.754;2022-12-05T14:35:51;102652.78;;;23.49;22.02
74637;BME280;63141;54.616;39.754;2022-12-05T14:38:53;102656.34;;;23.48;21.87
74637;BME280;63141;54.616;39.754;2022-12-05T14:41:56;102643.06;;;23.48;21.95
74637;BME280;63141;54.616;39.754;2022-12-05T14:45:01;102643.06;;;23.48;21.89
74637;BME280;63141;54.616;39.754;2022-12-05T14:54:31;102627.06;;;23.50;21.86
74637;BME280;63141;54.616;39.754;2022-12-05T14:57:35;102633.28;;;23.49;21.81
74637;BME280;63141;54.616;39.754;2022-12-05T15:00:42;102619.13;;;23.47;22.03
74637;BME280;63141;54.616;39.754;2022-12-05T15:04:18;102619.13;;;23.47;21.74
74637;BME280;63141;54.616;39.754;2022-12-05T15:07:30;102612.91;;;23.46;21.86
74637;BME280;63141;54.616;39.754;2022-12-05T15:10:34;102612.03;;;23.46;22.00
74637;BME280;63141;54.616;39.754;2022-12-05T15:13:38;102615.56;;;23.46;22.60
74637;BME280;63141;54.616;39.754;2022-12-05T15:16:43;102611.09;;;23.50;24.02
74637;BME280;63141;54.616;39.754;2022-12-05T15:19:52;102617.31;;;23.52;26.44
74637;BME280;63141;54.616;39.754;2022-12-05T15:22:56;102613.75;;;23.53;28.87
74637;BME280;63141;54.616;39.754;2022-12-05T15:25:58;102618.16;;;23.57;31.03
74637;BME280;63141;54.616;39.754;2022-12-05T15:32:28;102619.03;;;23.62;29.86
74637;BME280;63141;54.616;39.754;2022-12-05T15:35:31;102607.47;;;23.63;29.99
74637;BME280;63141;54.616;39.754;2022-12-05T15:38:35;102618.09;;;23.65;29.70
74637;BME280;63141;54.616;39.754;2022-12-05T15:41:36;102614.53;;;23.66;29.56
74637;BME280;63141;54.616;39.754;2022-12-05T15:44:38;102611.88;;;23.67;29.58
74637;BME280;63141;54.616;39.754;2022-12-05T15:47:44;102606.56;;;23.67;29.18
74637;BME280;63141;54.616;39.754;2022-12-05T15:50:48;102601.22;;;23.67;28.88
74637;BME280;63141;54.616;39.754;2022-12-05T15:54:14;102596.78;;;23.66;28.51
74637;BME280;63141;54.616;39.754;2022-12-05T15:57:40;102599.44;;;23.66;28.32
74637;BME280;63141;54.616;39.754;2022-12-05T16:00:46;102594.16;;;23.63;28.13
74637;BME280;63141;54.616;39.754;2022-12-05T16:03:59;102592.41;;;23.62;27.86
74637;BME280;63141;54.616;39.754;2022-12-05T16:07:06;102586.19;;;23.61;27.63
74637;BME280;63141;54.616;39.754;2022-12-05T16:10:14;102577.31;;;23.61;27.29
74637;BME280;63141;54.616;39.754;2022-12-05T16:13:18;102574.66;;;23.61;27.50
74637;BME280;63141;54.616;39.754;2022-12-05T16:16:26;102572.91;;;23.60;27.34
74637;BME280;63141;54.616;39.754;2022-12-05T16:19:29;102566.72;;;23.59;27.19
74637;BME280;63141;54.616;39.754;2022-12-05T16:22:30;102559.63;;;23.57;26.79
74637;BME280;63141;54.616;39.754;2022-12-05T16:25:35;102556.97;;;23.57;26.85
74637;BME280;63141;54.616;39.754;2022-12-05T16:28:37;102548.13;;;23.55;26.51
74637;BME280;63141;54.616;39.754;2022-12-05T16:31:40;102545.47;;;23.55;26.46
74637;BME280;63141;54.616;39.754;2022-12-05T16:34:43;102542.81;;;23.55;26.33
74637;BME280;63141;54.616;39.754;2022-12-05T16:37:45;102542.81;;;23.55;26.53
74637;BME280;63141;54.616;39.754;2022-12-05T16:43:48;102539.25;;;23.56;26.30
74637;BME280;63141;54.616;39.754;2022-12-05T16:46:49;102533.94;;;23.56;26.56
74637;BME280;63141;54.616;39.754;2022-12-05T16:49:51;102527.69;;;23.57;26.36
74637;BME280;63141;54.616;39.754;2022-12-05T16:56:14;102519.72;;;23.57;26.28
74637;BME280;63141;54.616;39.754;2022-12-05T16:59:34;102517.97;;;23.56;26.39
74637;BME280;63141;54.616;39.754;2022-12-05T17:02:39;102518.84;;;23.56;26.24
74637;BME280;63141;54.616;39.754;2022-12-05T17:05:40;102515.31;;;23.57;26.44
74637;BME280;63141;54.616;39.754;2022-12-05T17:08:44;102513.53;;;23.58;26.62
74637;BME280;63141;54.616;39.754;2022-12-05T17:11:46;102511.69;;;23.61;26.95
74637;BME280;63141;54.616;39.754;2022-12-05T17:14:49;102510.78;;;23.67;27.37
74637;BME280;63141;54.616;39.754;2022-12-05T17:17:51;102510.72;;;23.73;27.25
74637;BME280;63141;54.616;39.754;2022-12-05T17:20:53;102511.56;;;23.81;26.93
74637;BME280;63141;54.616;39.754;2022-12-05T17:23:55;102503.53;;;23.88;26.94
74637;BME280;63141;54.616;39.754;2022-12-05T17:26:57;102500.75;;;23.97;26.51
74637;BME280;63141;54.616;39.754;2022-12-05T17:29:59;102495.34;;;24.06;26.60
74637;BME280;63141;54.616;39.754;2022-12-05T17:33:00;102496.97;;;24.16;26.22
74637;BME280;63141;54.616;39.754;2022-12-05T17:36:01;102492.47;;;24.24;26.27
74637;BME280;63141;54.616;39.754;2022-12-05T17:39:03;102494.16;;;24.32;26.15
74637;BME280;63141;54.616;39.754;2022-12-05T17:42:04;102485.19;;;24.39;26.15
74637;BME280;63141;54.616;39.754;2022-12-05T17:45:11;102485.09;;;24.48;25.93
74637;BME280;63141;54.616;39.754;2022-12-05T17:48:14;102492.09;;;24.55;25.90
74637;BME280;63141;54.616;39.754;2022-12-05T17:51:16;102494.69;;;24.60;25.80
74637;BME280;63141;54.616;39.754;2022-12-05T17:54:17;102490.16;;;24.66;25.59
74637;BME280;63141;54.616;39.754;2022-12-05T17:57:19;102486.50;;;24.74;25.29
74637;BME280;63141;54.616;39.754;2022-12-05T18:00:22;102486.50;;;24.75;25.13
74637;BME280;63141;54.616;39.754;2022-12-05T18:03:29;102481.25;;;24.71;25.43
74637;BME280;63141;54.616;39.754;2022-12-05T18:06:31;102478.63;;;24.66;25.11
74637;BME280;63141;54.616;39.754;2022-12-05T18:09:33;102469.78;;;24.65;25.37
74637;BME280;63141;54.616;39.754;2022-12-05T18:12:35;102475.09;;;24.67;25.42
74637;BME280;63141;54.616;39.754;2022-12-05T18:15:38;102468.84;;;24.68;25.08